Aérodrome :
LOGIN :

S'inscrire | Disclaimer

   EN    FR    IT 

 










Légende :    VFR   VFR Marginal   IFR   IFR Intensif   IFR Très Intensif
Visi : 
Plafond : 
>= 8 km
>= 3000ft
5 à 8 km
1000 à 3000 ft
1500m à 5 km
500 à 1000 ft
800 à 1500m
200 à 500 ft
< 800m
< 200 ft
Symboles :   Orages  Brouillard  Fortes neiges  Fortes précipitations  Vent > 20 kt
SIGMETs :   Divers  Orages  Givrage  Turbulence  Onde Orograph.  Cendres Volcan.






- Altitude de l'aérodrome : 1306 ft
- Code IATA : ACH


LSZR - Alten Rhein

DERNIER METAR :
  • 212250Z AUTO 27006KT 220V290 8000 RA FEW010 OVC013 OVC015 02/01 Q1019 RERASN

METARs EXPIRÉS :
  • 212220Z AUTO VRB03KT 9999 -DZ FEW011 OVC016 03/01 Q1019 RERASN
  • 212150Z AUTO VRB02KT 9999 -RA BKN020 02/02 Q1020 RERASN
  • 212120Z AUTO VRB02KT 9999 SCT045 BKN050 02/01 Q1020
  • 212050Z AUTO VRB03KT 9999 FEW044 SCT055 BKN075 02/01 Q1020
  • 212020Z AUTO VRB02KT 9999 SCT011 BKN013 BKN095 02/01 Q1019
  • 211950Z AUTO 23002KT 9999 FEW060 BKN100 02/01 Q1019
  • 211920Z AUTO 26002KT 9999 FEW060 SCT100 03/01 Q1019
  • 211850Z AUTO 26004KT 9999 SCT060 03/01 Q1019
  • 211820Z AUTO 30006KT 9999 SCT012 SCT014 03/02 Q1019

TAF TAF LSZR
Valide du 21 à 15h jusqu'au 22 à 00h UTC


211425Z 2115/2124 17005KT 9999 FEW020 BKN050
TEMPO 2116/2119 3000 SHSN BKN012
PROB40
TEMPO 2116/2119 30010KT 1200 SHSN VV006
PROB30
TEMPO 2119/2122 3000 SHSN BKN012
ATIS : +41 71 858 51 66



MET'MAP, la Météo Aéronautique d'un coup d'oeil ! - Copyright ORBIFLY Décembre 2007 - Disclaimer

ORBIFLY MET'MAP TEAM :

Programmation & Développement : Alexandra Zaïnal
Sur une idée originale de : Baudouin d'Aumeries
Soutien technique & logistique : Manuel Goepfert
Assistance : Marc-Olivier Méhu




SOURCES & CREDITS :

   NOAA